JRR26F EGAC-EGPH
Flight info
| Callsign | JRR26F |
|---|---|
| Flight time | 0h 28m |
| Altitude | 21000 |
| Route | MAGEE DCT BLACA P600 TUNSO |
| Aircraft | B738/M-SDE2E3FGHIRWXY/LB1 |
Departure
| Time | 2026-04-20 21:20 |
|---|---|
| Airport | George Best Belfast City Airport (EGAC) |
Arrival
| Time | 2026-04-20 21:49 |
|---|---|
| Airport | Edinburgh Airport (EGPH) |
| Time | Latitude | Longitude | Altitude | Speed | Heading |
|---|---|---|---|---|---|
| 2026-04-20 21:07 | 54.61411 | -5.87262 | 22 ft | 0 kts | 124° |
| 2026-04-20 21:13 | 54.61421 | -5.87284 | 26 ft | 2 kts | 129° |
| 2026-04-20 21:13 | 54.61432 | -5.87305 | 25 ft | 2 kts | 140° |
| 2026-04-20 21:14 | 54.61446 | -5.87318 | 26 ft | 2 kts | 186° |
| 2026-04-20 21:14 | 54.61459 | -5.87311 | 25 ft | 1 kts | 214° |
| 2026-04-20 21:14 | 54.61460 | -5.87309 | 25 ft | 0 kts | 214° |
| 2026-04-20 21:16 | 54.61453 | -5.87317 | 25 ft | 3 kts | 214° |
| 2026-04-20 21:16 | 54.61424 | -5.87354 | 22 ft | 7 kts | 220° |
| 2026-04-20 21:17 | 54.61389 | -5.87433 | 23 ft | 9 kts | 233° |
| 2026-04-20 21:17 | 54.61339 | -5.87497 | 22 ft | 10 kts | 214° |
| 2026-04-20 21:17 | 54.61273 | -5.87575 | 22 ft | 13 kts | 216° |
| 2026-04-20 21:17 | 54.61184 | -5.87685 | 22 ft | 19 kts | 215° |
| 2026-04-20 21:18 | 54.61095 | -5.87798 | 22 ft | 11 kts | 226° |
| 2026-04-20 21:18 | 54.61096 | -5.87928 | 21 ft | 12 kts | 296° |
| 2026-04-20 21:18 | 54.61128 | -5.88017 | 21 ft | 4 kts | 304° |
| 2026-04-20 21:18 | 54.61150 | -5.88030 | 21 ft | 3 kts | 7° |
| 2026-04-20 21:19 | 54.61169 | -5.88015 | 23 ft | 3 kts | 32° |
| 2026-04-20 21:19 | 54.61172 | -5.88012 | 22 ft | 0 kts | 33° |
| 2026-04-20 21:20 | 54.61236 | -5.87935 | 22 ft | 44 kts | 34° |
| 2026-04-20 21:20 | 54.61735 | -5.87340 | 25 ft | 126 kts | 34° |
| 2026-04-20 21:20 | 54.62572 | -5.86338 | 430 ft | 155 kts | 36° |
| 2026-04-20 21:20 | 54.63501 | -5.85374 | 1381 ft | 159 kts | 33° |
| 2026-04-20 21:21 | 54.64465 | -5.84411 | 2308 ft | 163 kts | 34° |
| 2026-04-20 21:21 | 54.65463 | -5.83443 | 3225 ft | 165 kts | 33° |
| 2026-04-20 21:21 | 54.66340 | -5.82121 | 3886 ft | 180 kts | 59° |
| 2026-04-20 21:21 | 54.66993 | -5.80062 | 4176 ft | 209 kts | 64° |
| 2026-04-20 21:22 | 54.67714 | -5.77723 | 4547 ft | 231 kts | 64° |
| 2026-04-20 21:22 | 54.68525 | -5.75140 | 5035 ft | 253 kts | 63° |
| 2026-04-20 21:22 | 54.69396 | -5.72452 | 5918 ft | 258 kts | 62° |
| 2026-04-20 21:22 | 54.70297 | -5.69733 | 6896 ft | 264 kts | 62° |
| 2026-04-20 21:23 | 54.71221 | -5.66965 | 7853 ft | 267 kts | 61° |
| 2026-04-20 21:23 | 54.72160 | -5.64162 | 8857 ft | 271 kts | 62° |
| 2026-04-20 21:23 | 54.73113 | -5.61326 | 9915 ft | 275 kts | 62° |
| 2026-04-20 21:23 | 54.74077 | -5.58454 | 10912 ft | 280 kts | 62° |
| 2026-04-20 21:24 | 54.75098 | -5.55407 | 11321 ft | 307 kts | 62° |
| 2026-04-20 21:24 | 54.76220 | -5.52061 | 11603 ft | 335 kts | 61° |
| 2026-04-20 21:24 | 54.77421 | -5.48490 | 12181 ft | 349 kts | 61° |
| 2026-04-20 21:24 | 54.78655 | -5.44821 | 13082 ft | 355 kts | 61° |
| 2026-04-20 21:25 | 54.79888 | -5.41148 | 14063 ft | 359 kts | 61° |
| 2026-04-20 21:25 | 54.81167 | -5.37329 | 14962 ft | 365 kts | 61° |
| 2026-04-20 21:25 | 54.82433 | -5.33541 | 15863 ft | 369 kts | 61° |
| 2026-04-20 21:25 | 54.83731 | -5.29652 | 16786 ft | 374 kts | 61° |
| 2026-04-20 21:26 | 54.85042 | -5.25717 | 17655 ft | 380 kts | 61° |
| 2026-04-20 21:26 | 54.86372 | -5.21717 | 18539 ft | 385 kts | 61° |
| 2026-04-20 21:26 | 54.87931 | -5.17887 | 19293 ft | 393 kts | 50° |
| 2026-04-20 21:26 | 54.89959 | -5.14647 | 20042 ft | 400 kts | 38° |
| 2026-04-20 21:27 | 54.92352 | -5.12138 | 20793 ft | 405 kts | 28° |
| 2026-04-20 21:27 | 54.94897 | -5.09966 | 21286 ft | 408 kts | 26° |
| 2026-04-20 21:27 | 54.97492 | -5.07820 | 21361 ft | 420 kts | 26° |
| 2026-04-20 21:27 | 55.00173 | -5.05581 | 21372 ft | 435 kts | 27° |
| 2026-04-20 21:28 | 55.02912 | -5.03244 | 21373 ft | 439 kts | 27° |
| 2026-04-20 21:28 | 55.05647 | -5.00872 | 21358 ft | 438 kts | 27° |
| 2026-04-20 21:28 | 55.08333 | -4.98505 | 21356 ft | 437 kts | 30° |
| 2026-04-20 21:28 | 55.10727 | -4.95309 | 21365 ft | 433 kts | 47° |
| 2026-04-20 21:29 | 55.12469 | -4.91073 | 21361 ft | 429 kts | 64° |
| 2026-04-20 21:29 | 55.13665 | -4.86468 | 21370 ft | 428 kts | 68° |
| 2026-04-20 21:29 | 55.14829 | -4.81669 | 21367 ft | 428 kts | 69° |
| 2026-04-20 21:30 | 55.15977 | -4.76867 | 21362 ft | 429 kts | 69° |
| 2026-04-20 21:30 | 55.17130 | -4.72063 | 21365 ft | 428 kts | 69° |
| 2026-04-20 21:30 | 55.18291 | -4.67266 | 21366 ft | 428 kts | 69° |
| 2026-04-20 21:30 | 55.19460 | -4.62468 | 21366 ft | 428 kts | 69° |
| 2026-04-20 21:31 | 55.20632 | -4.57684 | 21375 ft | 427 kts | 68° |
| 2026-04-20 21:31 | 55.21809 | -4.52883 | 21378 ft | 427 kts | 68° |
| 2026-04-20 21:31 | 55.22964 | -4.48175 | 21377 ft | 426 kts | 68° |
| 2026-04-20 21:31 | 55.24133 | -4.43401 | 21383 ft | 426 kts | 68° |
| 2026-04-20 21:32 | 55.25298 | -4.38634 | 21386 ft | 426 kts | 68° |
| 2026-04-20 21:32 | 55.26461 | -4.33861 | 21385 ft | 425 kts | 69° |
| 2026-04-20 21:32 | 55.27622 | -4.29088 | 21394 ft | 425 kts | 69° |
| 2026-04-20 21:32 | 55.28778 | -4.24318 | 21382 ft | 425 kts | 68° |
| 2026-04-20 21:33 | 55.29934 | -4.19543 | 21374 ft | 422 kts | 69° |
| 2026-04-20 21:33 | 55.31072 | -4.14835 | 21386 ft | 417 kts | 69° |
| 2026-04-20 21:33 | 55.32208 | -4.10118 | 21397 ft | 422 kts | 69° |
| 2026-04-20 21:33 | 55.33350 | -4.05368 | 21392 ft | 423 kts | 69° |
| 2026-04-20 21:34 | 55.34497 | -4.00588 | 21028 ft | 425 kts | 69° |
| 2026-04-20 21:34 | 55.35635 | -3.95836 | 20303 ft | 417 kts | 69° |
| 2026-04-20 21:34 | 55.36746 | -3.91189 | 19528 ft | 408 kts | 69° |
| 2026-04-20 21:34 | 55.37836 | -3.86621 | 18747 ft | 401 kts | 69° |
| 2026-04-20 21:35 | 55.38907 | -3.82120 | 17877 ft | 395 kts | 69° |
| 2026-04-20 21:35 | 55.39956 | -3.77700 | 17091 ft | 388 kts | 69° |
| 2026-04-20 21:35 | 55.40971 | -3.73413 | 16340 ft | 381 kts | 69° |
| 2026-04-20 21:35 | 55.41980 | -3.69146 | 15578 ft | 375 kts | 69° |
| 2026-04-20 21:36 | 55.42973 | -3.64935 | 14835 ft | 370 kts | 69° |
| 2026-04-20 21:36 | 55.43953 | -3.60769 | 14060 ft | 366 kts | 69° |
| 2026-04-20 21:36 | 55.44920 | -3.56654 | 13270 ft | 361 kts | 69° |
| 2026-04-20 21:36 | 55.45853 | -3.52676 | 13132 ft | 341 kts | 69° |
| 2026-04-20 21:37 | 55.46739 | -3.48902 | 12956 ft | 325 kts | 69° |
| 2026-04-20 21:37 | 55.47582 | -3.45298 | 12816 ft | 310 kts | 69° |
| 2026-04-20 21:37 | 55.48382 | -3.41869 | 12697 ft | 296 kts | 69° |
| 2026-04-20 21:37 | 55.49152 | -3.38574 | 12520 ft | 285 kts | 68° |
| 2026-04-20 21:38 | 55.50249 | -3.35748 | 12200 ft | 277 kts | 44° |
| 2026-04-20 21:38 | 55.51916 | -3.34109 | 11731 ft | 277 kts | 17° |
| 2026-04-20 21:38 | 55.53833 | -3.33976 | 11182 ft | 280 kts | 350° |
| 2026-04-20 21:38 | 55.55632 | -3.35304 | 10656 ft | 281 kts | 332° |
| 2026-04-20 21:39 | 55.57297 | -3.37089 | 10104 ft | 279 kts | 330° |
| 2026-04-20 21:39 | 55.58936 | -3.38910 | 9535 ft | 277 kts | 329° |
| 2026-04-20 21:39 | 55.60557 | -3.40724 | 9009 ft | 274 kts | 329° |
| 2026-04-20 21:39 | 55.62164 | -3.42532 | 8473 ft | 272 kts | 329° |
| 2026-04-20 21:40 | 55.63751 | -3.44324 | 7963 ft | 269 kts | 329° |
| 2026-04-20 21:40 | 55.65327 | -3.46107 | 7454 ft | 267 kts | 329° |
| 2026-04-20 21:40 | 55.66884 | -3.47874 | 7003 ft | 263 kts | 329° |
| 2026-04-20 21:40 | 55.68388 | -3.49589 | 6788 ft | 250 kts | 329° |
| 2026-04-20 21:41 | 55.69810 | -3.51217 | 6671 ft | 242 kts | 329° |
| 2026-04-20 21:41 | 55.71198 | -3.52815 | 6558 ft | 234 kts | 329° |
| 2026-04-20 21:41 | 55.72547 | -3.54373 | 6453 ft | 227 kts | 329° |
| 2026-04-20 21:41 | 55.73839 | -3.55875 | 6367 ft | 217 kts | 329° |
| 2026-04-20 21:42 | 55.75083 | -3.57326 | 6133 ft | 211 kts | 329° |
| 2026-04-20 21:42 | 55.76291 | -3.58742 | 5846 ft | 208 kts | 329° |
| 2026-04-20 21:42 | 55.77493 | -3.60158 | 5509 ft | 207 kts | 329° |
| 2026-04-20 21:42 | 55.78692 | -3.61576 | 5191 ft | 206 kts | 329° |
| 2026-04-20 21:43 | 55.79879 | -3.62986 | 4868 ft | 205 kts | 329° |
| 2026-04-20 21:43 | 55.81062 | -3.64399 | 4576 ft | 204 kts | 329° |
| 2026-04-20 21:43 | 55.82271 | -3.65649 | 4375 ft | 197 kts | 347° |
| 2026-04-20 21:43 | 55.83592 | -3.65639 | 3885 ft | 195 kts | 22° |
| 2026-04-20 21:44 | 55.84838 | -3.64685 | 3537 ft | 192 kts | 29° |
| 2026-04-20 21:44 | 55.85856 | -3.63373 | 3305 ft | 176 kts | 51° |
| 2026-04-20 21:44 | 55.86596 | -3.61724 | 3084 ft | 164 kts | 56° |
| 2026-04-20 21:44 | 55.87214 | -3.60123 | 2871 ft | 151 kts | 59° |
| 2026-04-20 21:45 | 55.87763 | -3.58587 | 2716 ft | 145 kts | 60° |
| 2026-04-20 21:45 | 55.88294 | -3.57051 | 2506 ft | 147 kts | 61° |
| 2026-04-20 21:45 | 55.88830 | -3.55480 | 2300 ft | 148 kts | 61° |
| 2026-04-20 21:45 | 55.89357 | -3.53926 | 2104 ft | 143 kts | 62° |
| 2026-04-20 21:46 | 55.89859 | -3.52435 | 1925 ft | 138 kts | 62° |
| 2026-04-20 21:46 | 55.90342 | -3.51002 | 1741 ft | 131 kts | 61° |
| 2026-04-20 21:46 | 55.90808 | -3.49624 | 1568 ft | 128 kts | 61° |
| 2026-04-20 21:46 | 55.91262 | -3.48282 | 1403 ft | 126 kts | 60° |
| 2026-04-20 21:47 | 55.91716 | -3.46942 | 1226 ft | 127 kts | 61° |
| 2026-04-20 21:47 | 55.92171 | -3.45584 | 1076 ft | 129 kts | 60° |
| 2026-04-20 21:47 | 55.92636 | -3.44216 | 858 ft | 127 kts | 61° |
| 2026-04-20 21:47 | 55.93077 | -3.42910 | 714 ft | 120 kts | 60° |
| 2026-04-20 21:48 | 55.93511 | -3.41639 | 557 ft | 121 kts | 60° |
| 2026-04-20 21:48 | 55.93942 | -3.40363 | 375 ft | 122 kts | 60° |
| 2026-04-20 21:48 | 55.94380 | -3.39079 | 214 ft | 120 kts | 60° |
| 2026-04-20 21:48 | 55.94802 | -3.37834 | 112 ft | 111 kts | 59° |
| 2026-04-20 21:49 | 55.95125 | -3.36877 | 111 ft | 68 kts | 58° |
| 2026-04-20 21:49 | 55.95253 | -3.36500 | 110 ft | 16 kts | 58° |
| 2026-04-20 21:49 | 55.95256 | -3.36428 | 110 ft | 5 kts | 121° |
| 2026-04-20 21:49 | 55.95229 | -3.36391 | 112 ft | 5 kts | 148° |
| 2026-04-20 21:50 | 55.95198 | -3.36357 | 113 ft | 6 kts | 148° |
| 2026-04-20 21:50 | 55.95151 | -3.36301 | 115 ft | 8 kts | 132° |
| 2026-04-20 21:50 | 55.95150 | -3.36237 | 115 ft | 5 kts | 60° |
| 2026-04-20 21:50 | 55.95168 | -3.36181 | 114 ft | 6 kts | 59° |
| 2026-04-20 21:51 | 55.95182 | -3.36137 | 113 ft | 7 kts | 58° |
| 2026-04-20 21:51 | 55.95218 | -3.36033 | 115 ft | 13 kts | 59° |
| 2026-04-20 21:51 | 55.95260 | -3.35909 | 113 ft | 8 kts | 59° |
| 2026-04-20 21:51 | 55.95255 | -3.35833 | 112 ft | 5 kts | 131° |
| 2026-04-20 21:52 | 55.95225 | -3.35789 | 115 ft | 6 kts | 131° |
| 2026-04-20 21:52 | 55.95204 | -3.35726 | 113 ft | 5 kts | 119° |
| 2026-04-20 21:52 | 55.95187 | -3.35664 | 114 ft | 6 kts | 119° |
| 2026-04-20 21:52 | 55.95158 | -3.35572 | 113 ft | 11 kts | 118° |
| 2026-04-20 21:53 | 55.95132 | -3.35480 | 114 ft | 5 kts | 111° |
| 2026-04-20 21:53 | 55.95148 | -3.35428 | 114 ft | 5 kts | 35° |
| 2026-04-20 21:53 | 55.95166 | -3.35410 | 114 ft | 0 kts | 29° |